Time;durP1;ratioP1;P1;durP2;ratioP2;P2;SDS_P1;SDS_P2;PMS_P1;PMS_P2;Temp;Humidity;BMP_temperature;BMP_pressure;BME280_temperature;BME280_humidity;BME280_pressure;Samples;Min_cycle;Max_cycle;Signal;HPM_P1;HPM_P2
2022/07/14 00:02:02;;;;;;;9.55;2.08;;;10.80;99.90;;;;;;4998186;28;20037;-68
2022/07/14 00:04:30;;;;;;;6.38;1.52;;;11.00;99.90;;;;;;4996168;28;20080;-67
2022/07/14 00:06:57;;;;;;;7.68;1.55;;;11.00;99.90;;;;;;5003365;28;20037;-69
2022/07/14 00:09:24;;;;;;;9.95;1.75;;;11.10;99.90;;;;;;4981822;28;20042;-68
2022/07/14 00:11:52;;;;;;;7.82;1.73;;;11.10;99.90;;;;;;5004761;28;20092;-68
2022/07/14 00:14:19;;;;;;;11.32;2.00;;;11.10;99.90;;;;;;5012457;28;20490;-69
2022/07/14 00:16:46;;;;;;;7.32;1.25;;;11.10;99.90;;;;;;4990878;28;20108;-67
2022/07/14 00:19:14;;;;;;;5.70;1.48;;;11.20;99.90;;;;;;5005300;28;20033;-65
2022/07/14 00:21:41;;;;;;;11.55;4.30;;;11.30;99.90;;;;;;5012361;28;20026;-69
2022/07/14 00:24:11;;;;;;;10.68;2.65;;;11.30;99.90;;;;;;5012189;28;20034;-68
2022/07/14 00:26:42;;;;;;;9.65;2.13;;;11.40;99.90;;;;;;5001679;28;20041;-67
2022/07/14 00:29:10;;;;;;;9.65;2.20;;;11.50;99.90;;;;;;5002250;28;20399;-72
2022/07/14 00:31:37;;;;;;;6.97;2.75;;;11.70;99.90;;;;;;5006537;28;20060;-68
2022/07/14 00:34:04;;;;;;;5.03;1.98;;;11.80;99.90;;;;;;5001777;28;20062;-68
2022/07/14 00:36:32;;;;;;;13.70;3.05;;;11.90;99.90;;;;;;5000272;28;20029;-67
2022/07/14 00:38:59;;;;;;;13.32;3.03;;;12.00;99.90;;;;;;4999234;28;20025;-69
2022/07/14 00:41:26;;;;;;;10.30;2.72;;;12.10;99.90;;;;;;5002782;28;20022;-67
2022/07/14 00:43:53;;;;;;;6.53;1.92;;;12.10;99.90;;;;;;4999771;28;20105;-68
2022/07/14 00:46:21;;;;;;;11.27;3.22;;;12.20;99.90;;;;;;5003143;28;20474;-66
2022/07/14 00:48:48;;;;;;;9.38;1.95;;;12.30;99.90;;;;;;4985559;28;20076;-67
2022/07/14 00:51:15;;;;;;;9.88;1.95;;;12.40;99.90;;;;;;5001705;28;20061;-66
2022/07/14 00:53:43;;;;;;;10.52;2.80;;;12.50;99.90;;;;;;5003998;28;20505;-65
2022/07/14 00:56:10;;;;;;;7.82;2.60;;;12.70;99.90;;;;;;5004191;28;20042;-71
2022/07/14 00:58:37;;;;;;;7.78;2.97;;;12.80;99.90;;;;;;5024385;28;20036;-67
2022/07/14 01:01:05;;;;;;;12.48;2.17;;;12.90;99.90;;;;;;5023118;28;20043;-68
2022/07/14 01:03:32;;;;;;;6.65;2.17;;;13.00;99.90;;;;;;5021021;28;20057;-68
2022/07/14 01:05:59;;;;;;;12.27;2.25;;;13.00;99.90;;;;;;5003419;28;20033;-66
2022/07/14 01:08:26;;;;;;;11.88;2.75;;;13.00;99.90;;;;;;5011081;28;20111;-66
2022/07/14 01:10:54;;;;;;;12.50;2.17;;;13.20;99.90;;;;;;5022268;28;20022;-67
2022/07/14 01:13:21;;;;;;;8.65;2.53;;;13.30;99.90;;;;;;5017677;28;20025;-66
2022/07/14 01:15:48;;;;;;;8.20;2.38;;;13.40;99.90;;;;;;4998372;28;20022;-65
2022/07/14 01:18:16;;;;;;;8.18;2.22;;;13.50;99.90;;;;;;5003939;28;20553;-66
2022/07/14 01:20:43;;;;;;;7.68;2.13;;;13.70;99.90;;;;;;5001487;28;20032;-66
2022/07/14 01:23:10;;;;;;;7.00;1.95;;;13.80;99.90;;;;;;5002509;28;20022;-66
2022/07/14 01:25:37;;;;;;;10.15;3.13;;;13.80;99.90;;;;;;5001126;28;20029;-66
2022/07/14 01:28:05;;;;;;;8.40;2.45;;;13.80;99.90;;;;;;5002116;28;20017;-66
2022/07/14 01:30:33;;;;;;;7.60;2.65;;;13.80;99.90;;;;;;5003007;28;20030;-69
2022/07/14 01:33:00;;;;;;;8.85;2.55;;;13.80;99.90;;;;;;5002467;28;20073;-65
2022/07/14 01:35:27;;;;;;;12.45;3.55;;;13.90;99.90;;;;;;5003795;28;20025;-67
2022/07/14 01:37:55;;;;;;;7.80;2.88;;;13.90;99.90;;;;;;5004675;28;20026;-67
2022/07/14 01:40:22;;;;;;;11.68;3.00;;;13.90;99.90;;;;;;5003993;28;20033;-65
2022/07/14 01:42:49;;;;;;;6.90;2.40;;;14.00;99.90;;;;;;5006186;28;20390;-72
2022/07/14 01:45:17;;;;;;;7.60;2.50;;;14.00;99.90;;;;;;5002674;28;20041;-73
2022/07/14 01:47:44;;;;;;;10.63;2.92;;;14.00;99.90;;;;;;5004848;28;20022;-69
2022/07/14 01:50:12;;;;;;;12.50;4.10;;;14.10;99.90;;;;;;5003836;28;20026;-70
2022/07/14 01:52:39;;;;;;;13.90;4.35;;;14.20;99.90;;;;;;5003660;28;20061;-73
2022/07/14 01:55:07;;;;;;;11.73;4.40;;;14.40;99.90;;;;;;5019117;28;20037;-69
2022/07/14 01:57:34;;;;;;;9.35;2.88;;;14.50;99.90;;;;;;5002461;28;20603;-70
2022/07/14 02:00:01;;;;;;;13.35;4.25;;;14.50;99.90;;;;;;5013009;28;20486;-69
2022/07/14 02:02:29;;;;;;;10.52;2.53;;;14.60;99.90;;;;;;5009711;28;20034;-70
2022/07/14 02:04:56;;;;;;;7.80;2.97;;;14.60;99.90;;;;;;5004333;28;20096;-69
2022/07/14 02:07:23;;;;;;;8.52;2.95;;;14.70;99.90;;;;;;5002861;28;20025;-67
2022/07/14 02:12:41;;;;;;;9.50;2.53;;;14.50;99.90;;;;;;5041257;28;20040;-69
2022/07/14 02:15:09;;;;;;;11.05;4.95;;;14.60;99.90;;;;;;5017152;28;20397;-68
2022/07/14 02:17:36;;;;;;;10.18;2.15;;;14.50;99.90;;;;;;5002547;28;20030;-69
2022/07/14 02:20:04;;;;;;;8.68;3.25;;;14.50;99.90;;;;;;5022730;28;20079;-67
2022/07/14 02:22:31;;;;;;;7.10;2.38;;;14.50;99.90;;;;;;5016568;28;20022;-72
2022/07/14 02:24:58;;;;;;;14.43;2.88;;;14.50;99.90;;;;;;5000163;28;20037;-68
2022/07/14 02:27:26;;;;;;;7.00;1.85;;;14.50;99.90;;;;;;5002950;28;20029;-67
2022/07/14 02:29:54;;;;;;;10.48;2.15;;;14.60;99.90;;;;;;5014162;28;20021;-68
2022/07/14 02:32:21;;;;;;;6.93;1.92;;;14.70;99.90;;;;;;5022717;28;20083;-68
2022/07/14 02:34:48;;;;;;;6.18;1.80;;;14.80;99.90;;;;;;5009143;28;20033;-69
2022/07/14 02:37:17;;;;;;;10.75;3.63;;;14.80;99.90;;;;;;5018226;28;20029;-72
2022/07/14 02:39:44;;;;;;;12.13;2.80;;;14.90;99.90;;;;;;5002324;28;20033;-68
2022/07/14 02:42:11;;;;;;;6.75;2.53;;;14.80;99.90;;;;;;5001581;28;20101;-68
2022/07/14 02:44:38;;;;;;;8.00;2.72;;;14.70;99.90;;;;;;5001837;28;20077;-68
2022/07/14 02:47:06;;;;;;;11.50;3.28;;;14.70;99.90;;;;;;5011622;28;20076;-70
2022/07/14 02:49:33;;;;;;;9.60;3.30;;;14.60;99.90;;;;;;5021674;28;20105;-67
2022/07/14 02:52:00;;;;;;;6.25;2.63;;;14.50;99.90;;;;;;5021794;28;20520;-69
2022/07/14 02:54:28;;;;;;;10.93;3.38;;;14.60;99.90;;;;;;5004894;28;20029;-69
2022/07/14 02:56:56;;;;;;;17.95;2.85;;;14.70;99.90;;;;;;5002469;28;20437;-70
2022/07/14 02:59:23;;;;;;;9.48;2.05;;;14.90;99.90;;;;;;5003189;28;20053;-68
2022/07/14 03:01:50;;;;;;;9.18;2.67;;;15.30;99.90;;;;;;5002897;28;20117;-68
2022/07/14 03:04:18;;;;;;;7.43;2.78;;;15.90;99.90;;;;;;5017294;28;20064;-67
2022/07/14 03:06:46;;;;;;;8.48;2.30;;;16.40;99.90;;;;;;4992358;28;20100;-70
2022/07/14 03:09:13;;;;;;;10.75;2.53;;;16.60;99.90;;;;;;4997711;28;20034;-69
2022/07/14 03:11:40;;;;;;;8.73;4.22;;;16.40;99.90;;;;;;5000851;28;20026;-69
2022/07/14 03:14:08;;;;;;;11.75;5.03;;;16.00;99.90;;;;;;5001635;28;20021;-68
2022/07/14 03:16:35;;;;;;;7.70;3.50;;;15.90;99.90;;;;;;4998458;28;20112;-67
2022/07/14 03:19:02;;;;;;;6.18;2.65;;;16.00;99.90;;;;;;4999140;28;20022;-69
2022/07/14 03:21:29;;;;;;;9.73;2.13;;;16.20;99.90;;;;;;4998110;28;20021;-68
2022/07/14 03:23:57;;;;;;;10.43;2.40;;;16.50;99.90;;;;;;4999836;28;20435;-71
2022/07/14 03:26:25;;;;;;;15.40;3.60;;;16.50;99.90;;;;;;4999052;28;20025;-69
2022/07/14 03:28:52;;;;;;;5.85;1.48;;;16.40;99.90;;;;;;5000710;28;20046;-68
2022/07/14 03:31:19;;;;;;;7.70;1.90;;;16.50;99.90;;;;;;5001264;28;20359;-68
2022/07/14 03:33:47;;;;;;;6.68;1.92;;;16.70;99.90;;;;;;5001014;28;20451;-68
2022/07/14 03:36:15;;;;;;;5.90;1.40;;;17.00;99.90;;;;;;5000796;28;20018;-69
2022/07/14 03:38:42;;;;;;;6.47;1.75;;;16.90;99.90;;;;;;5001823;28;20556;-71
2022/07/14 03:41:09;;;;;;;5.55;1.92;;;16.60;99.80;;;;;;4985364;28;20033;-68
2022/07/14 03:43:36;;;;;;;9.77;2.63;;;16.30;99.80;;;;;;4992904;28;20028;-70
2022/07/14 03:46:04;;;;;;;7.40;1.63;;;16.00;99.90;;;;;;4992554;28;20022;-70
2022/07/14 03:48:33;;;;;;;7.05;2.72;;;15.70;99.90;;;;;;4999107;28;20390;-69
2022/07/14 03:51:01;;;;;;;10.07;2.95;;;15.40;99.90;;;;;;4999646;28;20034;-68
2022/07/14 03:53:31;;;;;;;10.00;4.25;;;15.30;99.90;;;;;;5000372;28;20057;-70
2022/07/14 03:55:59;;;;;;;9.95;4.85;;;15.10;99.90;;;;;;4999254;28;20082;-69
2022/07/14 03:58:26;;;;;;;10.27;3.75;;;14.90;99.90;;;;;;4999144;28;20030;-65
2022/07/14 04:00:57;;;;;;;11.20;2.75;;;14.70;99.90;;;;;;4999525;28;20141;-73
2022/07/14 04:03:24;;;;;;;10.05;2.40;;;14.60;99.90;;;;;;4999386;28;20101;-66
2022/07/14 04:05:51;;;;;;;5.15;1.75;;;14.50;99.90;;;;;;5000069;28;20391;-68
2022/07/14 04:08:19;;;;;;;9.18;2.17;;;14.40;99.90;;;;;;5032076;28;20045;-69
2022/07/14 04:10:46;;;;;;;9.80;2.55;;;14.40;99.90;;;;;;5000079;28;20045;-74
2022/07/14 04:13:14;;;;;;;7.75;2.38;;;14.30;99.90;;;;;;4999191;28;20471;-65
2022/07/14 04:15:42;;;;;;;8.70;2.15;;;14.40;99.90;;;;;;5000272;28;20030;-70
2022/07/14 04:18:09;;;;;;;8.48;2.85;;;14.40;99.90;;;;;;5003531;28;20086;-67
2022/07/14 04:20:37;;;;;;;10.05;3.00;;;14.30;99.90;;;;;;5002649;28;20908;-69
2022/07/14 04:23:04;;;;;;;8.93;2.95;;;14.30;99.90;;;;;;5003928;28;20029;-66
2022/07/14 04:25:32;;;;;;;13.05;2.10;;;14.30;99.90;;;;;;5003365;28;20041;-64
2022/07/14 04:27:59;;;;;;;10.07;1.85;;;14.30;99.90;;;;;;5003416;28;20108;-63
2022/07/14 04:30:27;;;;;;;11.07;2.10;;;14.40;99.90;;;;;;5003824;28;20070;-68
2022/07/14 04:32:55;;;;;;;7.68;1.98;;;14.30;99.90;;;;;;5002922;28;20026;-74
2022/07/14 04:35:22;;;;;;;10.77;2.10;;;14.40;99.90;;;;;;5003283;28;20022;-67
2022/07/14 04:37:49;;;;;;;6.68;2.38;;;14.50;99.90;;;;;;5002346;28;20331;-68
2022/07/14 04:40:17;;;;;;;10.63;2.17;;;14.50;99.90;;;;;;5002358;28;20121;-66
2022/07/14 04:42:44;;;;;;;7.72;1.60;;;14.60;99.90;;;;;;5002366;28;20021;-67
2022/07/14 04:45:12;;;;;;;11.10;3.58;;;14.70;99.90;;;;;;5003555;28;20038;-71
2022/07/14 04:47:39;;;;;;;9.60;1.90;;;14.70;99.90;;;;;;5002299;28;20378;-68
2022/07/14 04:52:52;;;;;;;11.52;2.42;;;14.90;99.90;;;;;;4999682;28;20073;-70
2022/07/14 04:55:19;;;;;;;8.32;1.85;;;15.00;99.90;;;;;;5001612;28;20095;-76
2022/07/14 04:57:47;;;;;;;12.10;2.03;;;15.00;99.90;;;;;;5000223;28;20088;-71
2022/07/14 05:00:15;;;;;;;7.80;2.40;;;15.00;99.90;;;;;;5002404;28;20093;-72
2022/07/14 05:02:42;;;;;;;4.32;1.80;;;15.00;99.90;;;;;;5032246;28;20026;-74
2022/07/14 05:05:10;;;;;;;7.20;2.70;;;15.00;99.90;;;;;;5001648;28;20188;-70
2022/07/14 05:07:37;;;;;;;9.27;1.52;;;15.00;99.90;;;;;;5001582;28;20526;-75
2022/07/14 05:10:07;;;;;;;9.60;1.75;;;15.00;99.90;;;;;;5002482;28;20026;-74
2022/07/14 05:12:35;;;;;;;4.38;1.35;;;15.10;99.90;;;;;;5001435;28;20026;-73
2022/07/14 05:15:03;;;;;;;6.72;1.50;;;15.20;99.90;;;;;;5002061;28;20026;-73
2022/07/14 05:17:30;;;;;;;6.82;2.17;;;15.30;99.70;;;;;;5002385;28;20084;-74
2022/07/14 05:19:57;;;;;;;10.65;1.80;;;15.30;99.50;;;;;;5001989;28;20037;-73
2022/07/14 05:22:25;;;;;;;8.35;1.83;;;15.40;99.30;;;;;;5001839;28;20024;-75
2022/07/14 05:24:53;;;;;;;6.30;1.75;;;15.40;99.40;;;;;;5000404;28;20088;-73
2022/07/14 05:27:20;;;;;;;6.63;1.67;;;15.40;99.30;;;;;;5000204;28;20442;-70
2022/07/14 05:29:47;;;;;;;7.32;2.10;;;15.30;99.40;;;;;;5001637;28;20030;-70
2022/07/14 05:32:15;;;;;;;4.68;1.42;;;15.40;99.10;;;;;;5001398;28;20537;-72
2022/07/14 05:34:43;;;;;;;7.07;1.65;;;15.40;99.00;;;;;;5000530;28;20084;-74
2022/07/14 05:37:11;;;;;;;7.60;1.95;;;15.50;99.00;;;;;;4999961;28;20014;-76
2022/07/14 05:39:39;;;;;;;5.10;1.30;;;15.60;98.80;;;;;;5000996;28;20180;-75
2022/07/14 05:42:07;;;;;;;4.60;1.33;;;15.70;99.20;;;;;;5001256;28;20022;-74
2022/07/14 05:44:37;;;;;;;5.95;1.30;;;15.80;98.50;;;;;;5001447;28;20022;-69
2022/07/14 05:47:05;;;;;;;8.15;2.88;;;15.80;99.10;;;;;;5001359;28;20017;-70
2022/07/14 05:49:32;;;;;;;6.07;1.85;;;15.80;98.10;;;;;;5001340;28;20377;-71
2022/07/14 05:52:02;;;;;;;6.85;2.03;;;15.70;97.70;;;;;;5000287;28;20022;-73
2022/07/14 05:54:29;;;;;;;5.57;1.95;;;15.70;97.80;;;;;;5001050;28;20038;-70
2022/07/14 05:56:56;;;;;;;9.45;1.73;;;15.80;97.60;;;;;;5000658;28;20030;-74
2022/07/14 05:59:24;;;;;;;3.88;1.23;;;16.00;97.30;;;;;;5000382;28;20048;-73
2022/07/14 06:01:51;;;;;;;6.03;2.03;;;15.90;97.30;;;;;;5001076;28;20390;-73
2022/07/14 06:04:18;;;;;;;10.35;1.45;;;16.10;97.60;;;;;;5001850;28;20021;-73
2022/07/14 06:06:47;;;;;;;6.38;1.52;;;16.20;97.00;;;;;;5000078;28;20661;-71
2022/07/14 06:09:15;;;;;;;6.03;1.50;;;16.60;96.70;;;;;;5000633;28;20485;-72
2022/07/14 06:11:44;;;;;;;6.28;1.70;;;16.80;95.80;;;;;;4999068;28;20069;-72
2022/07/14 06:14:11;;;;;;;7.00;1.60;;;16.60;95.70;;;;;;5000221;28;20100;-70
2022/07/14 06:16:41;;;;;;;5.25;1.23;;;16.40;95.60;;;;;;5001160;28;20487;-75
2022/07/14 06:19:08;;;;;;;6.28;1.17;;;16.20;95.60;;;;;;5001295;28;20029;-66
2022/07/14 06:21:35;;;;;;;6.65;1.73;;;16.20;95.80;;;;;;5001792;28;20112;-73
2022/07/14 06:24:05;;;;;;;3.92;1.48;;;16.10;95.90;;;;;;4999946;28;20154;-70
2022/07/14 06:26:34;;;;;;;10.48;2.53;;;16.00;95.70;;;;;;5028731;28;20730;-72
2022/07/14 06:29:02;;;;;;;6.72;2.05;;;15.70;96.10;;;;;;4998971;28;20032;-72
2022/07/14 06:31:33;;;;;;;5.07;1.13;;;15.40;96.30;;;;;;4999683;28;20072;-64
2022/07/14 06:34:02;;;;;;;8.10;1.43;;;15.20;96.80;;;;;;4999133;28;20038;-75
2022/07/14 06:36:29;;;;;;;5.72;1.52;;;14.90;97.10;;;;;;4993259;28;20025;-68
2022/07/14 06:38:58;;;;;;;7.00;1.00;;;14.70;97.40;;;;;;4999326;28;20046;-74
2022/07/14 06:41:25;;;;;;;5.07;1.40;;;14.50;97.60;;;;;;4998994;28;20032;-71
2022/07/14 06:43:52;;;;;;;4.40;1.20;;;14.30;97.90;;;;;;4998660;28;20029;-75
2022/07/14 06:46:20;;;;;;;5.90;1.58;;;14.10;98.20;;;;;;4999774;28;20042;-72
2022/07/14 06:48:47;;;;;;;6.60;1.30;;;14.10;98.40;;;;;;5000170;28;20088;-67
2022/07/14 06:51:15;;;;;;;6.07;1.30;;;13.90;98.80;;;;;;5013484;28;20037;-74
2022/07/14 06:53:42;;;;;;;4.35;1.45;;;13.80;98.80;;;;;;5000812;28;20071;-71
2022/07/14 06:56:09;;;;;;;6.60;2.40;;;13.70;99.00;;;;;;4996713;28;20086;-75
2022/07/14 06:58:36;;;;;;;8.52;1.65;;;13.60;99.30;;;;;;4996097;28;20032;-68
2022/07/14 07:01:04;;;;;;;6.72;1.25;;;13.50;99.30;;;;;;4999510;28;20038;-76
2022/07/14 07:03:31;;;;;;;6.22;1.65;;;13.40;99.10;;;;;;4999362;28;20022;-71
2022/07/14 07:08:45;;;;;;;4.93;1.20;;;13.30;99.20;;;;;;4997723;28;20028;-76
2022/07/14 07:11:13;;;;;;;5.43;1.30;;;13.10;99.50;;;;;;4998425;28;20582;-75
2022/07/14 07:13:40;;;;;;;4.53;1.17;;;13.10;99.60;;;;;;4996909;28;20498;-78
2022/07/14 07:16:09;;;;;;;4.65;1.52;;;13.00;99.60;;;;;;4996776;28;20026;-75
2022/07/14 07:18:37;;;;;;;6.15;1.80;;;13.00;99.90;;;;;;5000842;28;20021;-70
2022/07/14 07:21:06;;;;;;;7.32;2.05;;;12.90;99.90;;;;;;5002007;28;20031;-73
2022/07/14 07:23:34;;;;;;;3.50;1.40;;;12.70;99.90;;;;;;5018860;28;20382;-70
2022/07/14 07:26:01;;;;;;;5.15;2.65;;;12.70;99.90;;;;;;5007999;28;20026;-78
2022/07/14 07:28:28;;;;;;;6.55;2.97;;;12.70;99.90;;;;;;5004400;28;20022;-74
2022/07/14 07:30:55;;;;;;;6.65;1.98;;;12.70;99.90;;;;;;5001229;28;20041;-70
2022/07/14 07:33:23;;;;;;;2.95;1.23;;;12.60;99.90;;;;;;5000415;28;20033;-68
2022/07/14 07:35:50;;;;;;;3.33;1.38;;;12.60;99.90;;;;;;5002316;28;20057;-71
2022/07/14 07:38:19;;;;;;;5.40;2.08;;;12.50;99.90;;;;;;5013693;28;20029;-71
2022/07/14 07:40:48;;;;;;;5.32;1.33;;;12.50;99.90;;;;;;5013102;28;20029;-72
2022/07/14 07:43:16;;;;;;;4.82;1.40;;;12.60;99.90;;;;;;5011826;28;20041;-70
2022/07/14 07:45:43;;;;;;;4.00;2.90;;;12.50;99.90;;;;;;5020247;28;20136;-72
2022/07/14 07:48:10;;;;;;;7.40;2.22;;;12.50;99.90;;;;;;5019190;28;20409;-72
2022/07/14 07:50:40;;;;;;;6.00;2.47;;;12.40;99.90;;;;;;5003410;28;20112;-72
2022/07/14 07:53:08;;;;;;;8.38;2.47;;;12.40;99.90;;;;;;5004475;28;20156;-69
2022/07/14 07:55:38;;;;;;;7.13;1.98;;;12.30;99.90;;;;;;5004930;28;20080;-71
2022/07/14 07:58:07;;;;;;;4.10;1.65;;;12.30;99.80;;;;;;5003386;28;20132;-72
2022/07/14 08:00:35;;;;;;;3.95;1.42;;;12.30;99.60;;;;;;5019150;28;20053;-73
2022/07/14 08:03:03;;;;;;;2.70;1.60;;;12.40;99.60;;;;;;5022707;28;20430;-66
2022/07/14 08:05:32;;;;;;;4.28;2.03;;;12.30;99.60;;;;;;5024955;28;20034;-69
2022/07/14 08:08:00;;;;;;;2.75;1.30;;;12.20;99.70;;;;;;5024024;28;20022;-66
2022/07/14 08:10:27;;;;;;;6.38;2.08;;;12.20;99.70;;;;;;5006106;28;20026;-72
2022/07/14 08:12:54;;;;;;;4.95;2.28;;;12.20;99.50;;;;;;5006147;28;20100;-72
2022/07/14 08:15:24;;;;;;;4.97;1.80;;;12.20;99.50;;;;;;5006824;28;20133;-69
2022/07/14 08:17:52;;;;;;;7.45;2.53;;;12.10;99.70;;;;;;5015256;28;20458;-67
2022/07/14 08:20:19;;;;;;;3.78;1.85;;;12.10;99.60;;;;;;5026315;28;20064;-73
2022/07/14 08:22:47;;;;;;;6.53;2.72;;;12.00;99.70;;;;;;5026009;28;20022;-72
2022/07/14 08:25:14;;;;;;;6.38;2.75;;;12.00;99.50;;;;;;4987388;28;20058;-69
2022/07/14 08:27:42;;;;;;;6.10;2.70;;;12.00;99.60;;;;;;4986926;28;20036;-70
2022/07/14 08:30:09;;;;;;;6.43;2.38;;;12.00;99.80;;;;;;4987498;28;20034;-64
2022/07/14 08:32:39;;;;;;;9.48;4.45;;;11.80;99.70;;;;;;4986048;28;20121;-68
2022/07/14 08:35:11;;;;;;;5.80;3.22;;;11.80;99.90;;;;;;4987574;28;20382;-68
2022/07/14 08:37:39;;;;;;;8.18;2.83;;;11.80;99.80;;;;;;5000363;28;20033;-69
2022/07/14 08:40:10;;;;;;;9.40;2.92;;;11.80;99.70;;;;;;5026024;28;20033;-72
2022/07/14 08:42:38;;;;;;;6.25;2.45;;;11.70;99.60;;;;;;5025296;28;20017;-71
2022/07/14 08:45:09;;;;;;;4.47;2.10;;;11.70;99.70;;;;;;5026559;28;20497;-71
2022/07/14 08:47:37;;;;;;;6.07;3.03;;;11.70;99.60;;;;;;5025873;28;20033;-68
2022/07/14 08:50:06;;;;;;;6.32;3.30;;;11.70;99.70;;;;;;5026087;28;20025;-68
2022/07/14 08:52:33;;;;;;;7.82;3.60;;;11.70;99.70;;;;;;5026125;28;20021;-72
2022/07/14 08:55:01;;;;;;;13.48;4.78;;;11.70;99.70;;;;;;5020227;28;20022;-72
2022/07/14 08:57:28;;;;;;;7.18;2.72;;;11.60;99.80;;;;;;5022723;28;20094;-71
2022/07/14 08:59:56;;;;;;;7.82;2.28;;;11.50;99.60;;;;;;5026082;28;20086;-65
2022/07/14 09:02:23;;;;;;;8.10;1.55;;;11.60;99.70;;;;;;5015580;28;20030;-67
2022/07/14 09:04:50;;;;;;;7.30;2.53;;;11.50;99.70;;;;;;5006169;28;20038;-66
2022/07/14 09:07:35;;;;;;;6.25;2.10;;;11.50;99.70;;;;;;5006751;28;20030;-71
2022/07/14 09:10:09;;;;;;;4.22;3.17;;;11.50;99.80;;;;;;5005852;28;20529;-63
2022/07/14 09:12:37;;;;;;;9.77;4.00;;;11.50;99.90;;;;;;5005648;28;20018;-66
2022/07/14 09:18:00;;;;;;;6.43;3.08;;;11.50;99.80;;;;;;5025185;28;20029;-70
2022/07/14 09:20:31;;;;;;;6.82;2.10;;;11.50;99.70;;;;;;5025279;28;20117;-65
2022/07/14 09:23:00;;;;;;;8.52;5.45;;;11.50;99.80;;;;;;5024868;28;20493;-73
2022/07/14 09:25:31;;;;;;;8.20;3.78;;;11.50;99.80;;;;;;5025336;28;20038;-72
2022/07/14 09:27:58;;;;;;;7.30;3.35;;;11.40;99.90;;;;;;5021377;28;20722;-65
2022/07/14 09:30:26;;;;;;;7.30;3.28;;;11.40;99.90;;;;;;5005707;28;20030;-63
2022/07/14 09:32:57;;;;;;;4.20;1.88;;;11.40;99.90;;;;;;5004967;28;20503;-66
2022/07/14 09:35:37;;;;;;;6.45;2.17;;;11.40;99.90;;;;;;5021405;28;20034;-73
2022/07/14 09:38:19;;;;;;;;;;;11.30;99.90;;;;;;5025788;28;20045;-63
2022/07/14 09:40:48;;;;;;;6.28;2.50;;;11.30;99.90;;;;;;5024449;28;19995;-63
2022/07/14 09:43:16;;;;;;;4.70;1.98;;;11.20;99.90;;;;;;5018673;28;20261;-70
2022/07/14 09:45:46;;;;;;;11.48;3.08;;;11.20;99.90;;;;;;5021768;28;20082;-71
2022/07/14 09:48:14;;;;;;;5.45;1.85;;;11.20;99.90;;;;;;5003982;28;20025;-65
2022/07/14 09:50:47;;;;;;;2.92;1.70;;;11.20;99.90;;;;;;5004659;28;20509;-65
2022/07/14 09:53:34;;;;;;;5.07;1.95;;;11.20;99.90;;;;;;5005025;28;20015;-71
2022/07/14 09:56:07;;;;;;;4.03;1.88;;;11.20;99.90;;;;;;5021349;28;20041;-67
2022/07/14 09:58:44;;;;;;;6.65;3.72;;;11.10;99.90;;;;;;5005438;28;20360;-64
2022/07/14 10:01:18;;;;;;;11.45;4.32;;;11.10;99.90;;;;;;5014608;28;20025;-66
2022/07/14 10:03:47;;;;;;;9.02;4.15;;;11.10;99.90;;;;;;5023857;28;20470;-67
2022/07/14 10:06:15;;;;;;;10.15;4.95;;;11.00;99.90;;;;;;5019402;28;20026;-69
2022/07/14 10:08:46;;;;;;;9.50;6.47;;;11.00;99.90;;;;;;5004279;28;20026;-65
2022/07/14 10:11:13;;;;;;;12.15;7.00;;;10.90;99.90;;;;;;5004426;28;20022;-65
2022/07/14 10:13:41;;;;;;;15.50;7.18;;;10.90;99.90;;;;;;5002761;28;20374;-65
2022/07/14 10:16:08;;;;;;;9.23;4.75;;;10.90;99.90;;;;;;5003446;28;20022;-65
2022/07/14 10:18:36;;;;;;;8.90;4.80;;;10.90;99.90;;;;;;5004433;28;20045;-64
2022/07/14 10:21:06;;;;;;;10.15;3.88;;;10.80;99.90;;;;;;5019292;28;20422;-64
2022/07/14 10:23:36;;;;;;;5.80;3.30;;;10.90;99.90;;;;;;5022801;28;20022;-66
2022/07/14 10:26:05;;;;;;;7.25;2.97;;;10.90;99.90;;;;;;5006500;28;20041;-65
2022/07/14 10:28:33;;;;;;;9.05;3.33;;;10.80;99.90;;;;;;5004176;28;20021;-66
2022/07/14 10:31:19;;;;;;;6.50;2.53;;;10.80;99.90;;;;;;5003963;28;20030;-66
2022/07/14 10:34:24;;;;;;;5.60;2.50;;;10.80;99.90;;;;;;5002260;28;20061;-67
2022/07/14 10:37:15;;;;;;;7.88;4.35;;;10.80;99.90;;;;;;5008590;28;20069;-67
2022/07/14 10:39:54;;;;;;;15.07;8.15;;;10.70;99.90;;;;;;5001523;28;20014;-68
2022/07/14 10:42:30;;;;;;;8.60;5.93;;;10.70;99.90;;;;;;5001236;28;20433;-69
2022/07/14 10:45:01;;;;;;;10.82;5.25;;;10.70;99.90;;;;;;4999418;28;20050;-67
2022/07/14 10:47:43;;;;;;;11.48;9.35;;;10.70;99.90;;;;;;5005035;28;20030;-68
2022/07/14 10:50:12;;;;;;;10.73;6.05;;;10.70;99.90;;;;;;5003938;28;20037;-67
2022/07/14 10:52:49;;;;;;;7.80;4.00;;;10.70;99.90;;;;;;5002827;28;20022;-65
2022/07/14 10:55:32;;;;;;;7.43;4.03;;;10.50;99.90;;;;;;5000133;28;20057;-64
2022/07/14 10:58:01;;;;;;;5.18;4.00;;;10.50;99.90;;;;;;5000163;28;20042;-66
2022/07/14 11:00:44;;;;;;;11.50;5.38;;;10.50;99.90;;;;;;5002782;28;20065;-71
2022/07/14 11:03:21;;;;;;;8.32;5.25;;;10.40;99.90;;;;;;5001964;28;20036;-67
2022/07/14 11:06:08;;;;;;;8.18;3.35;;;10.30;99.90;;;;;;5001643;28;20065;-69
2022/07/14 11:08:37;;;;;;;5.82;3.53;;;10.30;99.90;;;;;;4999830;28;20869;-65
2022/07/14 11:11:16;;;;;;;11.18;5.22;;;10.20;99.90;;;;;;5000671;28;20352;-67
2022/07/14 11:14:15;;;;;;;7.72;4.03;;;10.20;99.90;;;;;;5000903;28;20662;-65
2022/07/14 11:16:50;;;;;;;9.93;4.28;;;10.10;99.90;;;;;;5005410;28;20114;-68
2022/07/14 11:19:31;;;;;;;15.48;9.63;;;10.00;99.90;;;;;;4997255;28;20026;-70
2022/07/14 11:22:16;;;;;;;12.15;7.43;;;9.90;99.90;;;;;;4997582;28;20383;-67
2022/07/14 11:24:56;;;;;;;7.43;4.07;;;9.90;99.90;;;;;;4998010;28;20030;-70
2022/07/14 11:27:35;;;;;;;10.88;4.60;;;9.80;99.90;;;;;;5010609;28;20033;-68
2022/07/14 11:30:21;;;;;;;8.93;5.57;;;9.80;99.90;;;;;;5012690;28;20026;-68
2022/07/14 11:33:01;;;;;;;7.90;4.57;;;9.70;99.90;;;;;;5000908;28;20025;-67
2022/07/14 11:38:35;;;;;;;11.48;4.22;;;9.60;99.90;;;;;;4999900;28;20029;-67
2022/07/14 11:41:05;;;;;;;8.48;3.88;;;9.60;99.90;;;;;;5001734;28;20478;-67
2022/07/14 11:43:34;;;;;;;7.60;3.28;;;9.50;99.90;;;;;;5002501;28;20390;-69
2022/07/14 11:46:13;;;;;;;7.55;4.53;;;9.60;99.90;;;;;;5001839;28;20025;-64
2022/07/14 11:48:48;;;;;;;12.40;3.60;;;9.50;99.90;;;;;;5003897;28;20065;-69
2022/07/14 11:51:27;;;;;;;10.05;4.90;;;9.50;99.90;;;;;;5001638;28;20037;-66
2022/07/14 11:54:04;;;;;;;7.88;3.70;;;9.60;99.90;;;;;;5000868;28;20075;-65
2022/07/14 11:56:31;;;;;;;6.90;4.07;;;9.50;99.90;;;;;;5001003;28;20096;-68
2022/07/14 11:59:03;;;;;;;8.57;3.80;;;9.50;99.90;;;;;;5002211;28;20046;-70
2022/07/14 12:01:38;;;;;;;5.15;3.42;;;9.50;99.90;;;;;;4999117;28;20030;-66
2022/07/14 12:04:08;;;;;;;4.88;3.30;;;9.50;99.90;;;;;;5001491;28;20034;-68
2022/07/14 12:06:40;;;;;;;7.15;3.45;;;9.40;99.90;;;;;;5001296;28;20034;-67
2022/07/14 12:09:09;;;;;;;6.63;3.58;;;9.50;99.90;;;;;;5001211;28;20045;-70
2022/07/14 12:11:36;;;;;;;7.57;4.20;;;9.50;99.90;;;;;;4996931;28;20128;-70
2022/07/14 12:14:03;;;;;;;6.75;4.05;;;9.40;99.90;;;;;;5001132;28;20042;-68
2022/07/14 12:16:42;;;;;;;6.45;3.30;;;9.40;99.90;;;;;;4998805;28;20570;-66
2022/07/14 12:19:11;;;;;;;6.82;4.03;;;9.30;99.90;;;;;;4982535;28;20114;-67
2022/07/14 12:21:39;;;;;;;7.07;3.17;;;9.40;99.90;;;;;;5009112;28;20021;-69
2022/07/14 12:24:11;;;;;;;6.53;2.95;;;9.30;99.90;;;;;;5021091;28;20104;-69
2022/07/14 12:26:39;;;;;;;9.23;3.67;;;9.30;99.90;;;;;;5023113;28;20355;-67
2022/07/14 12:29:06;;;;;;;8.55;3.20;;;9.20;99.90;;;;;;5011507;28;20022;-68
2022/07/14 12:31:40;;;;;;;5.50;3.17;;;9.20;99.90;;;;;;5000154;28;20105;-69
2022/07/14 12:34:08;;;;;;;7.88;4.10;;;9.20;99.90;;;;;;4999985;28;20025;-69
2022/07/14 12:36:37;;;;;;;11.48;6.32;;;9.10;99.90;;;;;;5002370;28;20018;-70
2022/07/14 12:39:06;;;;;;;10.27;5.32;;;9.10;99.90;;;;;;5005227;28;20038;-71
2022/07/14 12:41:34;;;;;;;12.00;5.28;;;9.10;99.90;;;;;;5003789;28;20046;-70
2022/07/14 12:44:06;;;;;;;10.43;6.03;;;9.10;99.90;;;;;;5005156;28;20026;-69
2022/07/14 12:46:33;;;;;;;9.07;4.35;;;9.10;99.90;;;;;;5002021;28;20105;-69
2022/07/14 12:49:03;;;;;;;6.82;4.20;;;9.10;99.90;;;;;;5004929;28;20025;-69
2022/07/14 12:51:42;;;;;;;9.25;3.97;;;9.00;99.90;;;;;;5003036;28;20034;-68
2022/07/14 12:54:15;;;;;;;5.78;3.35;;;9.10;99.90;;;;;;5002654;28;20610;-68
2022/07/14 12:56:42;;;;;;;7.88;3.97;;;9.00;99.90;;;;;;5004423;28;20069;-67
2022/07/14 12:59:17;;;;;;;11.57;6.10;;;9.00;99.90;;;;;;5002466;28;20025;-70
2022/07/14 13:01:52;;;;;;;7.10;3.60;;;8.90;99.90;;;;;;5004533;28;20022;-68
2022/07/14 13:04:37;;;;;;;5.18;2.85;;;8.90;99.90;;;;;;5004440;28;20109;-68
2022/07/14 13:07:25;;;;;;;5.45;3.30;;;8.90;99.90;;;;;;5003978;28;20026;-68
2022/07/14 13:10:12;;;;;;;7.82;3.25;;;8.80;99.90;;;;;;5001632;28;20028;-68
2022/07/14 13:12:51;;;;;;;3.83;2.80;;;8.80;99.90;;;;;;5002400;28;20105;-68